Time;durP1;ratioP1;P1;durP2;ratioP2;P2;SDS_P1;SDS_P2;PMS_P1;PMS_P2;Temp;Humidity;BMP_temperature;BMP_pressure;BME280_temperature;BME280_humidity;BME280_pressure;Samples;Min_cycle;Max_cycle;Signal;HPM_P1;HPM_P2
2023/10/04 00:00:14;;;;;;;2.65;0.63;;;;;;;17.44;100.00;102294.88;10446670;28;20124;-78
2023/10/04 00:05:17;;;;;;;0.10;0.10;;;;;;;17.10;100.00;102304.59;10446882;28;20057;-78
2023/10/04 00:10:21;;;;;;;0.00;0.00;;;;;;;17.70;100.00;102312.75;10443887;28;20040;-79
2023/10/04 00:15:26;;;;;;;0.98;0.38;;;;;;;17.48;100.00;102321.00;10446432;28;20053;-78
2023/10/04 00:20:38;;;;;;;2.50;0.70;;;;;;;17.41;100.00;102322.63;10450826;28;20136;-79
2023/10/04 00:25:39;;;;;;;0.70;0.10;;;;;;;17.33;100.00;102317.22;10458610;28;20051;-78
2023/10/04 00:30:43;;;;;;;0.75;0.32;;;;;;;17.36;100.00;102319.91;10459767;28;20049;-78
2023/10/04 00:35:44;;;;;;;0.20;0.20;;;;;;;17.46;100.00;102323.56;10404291;28;20145;-79
2023/10/04 00:40:50;;;;;;;0.98;0.22;;;;;;;17.56;100.00;102340.25;10441537;28;20056;-79
2023/10/04 00:45:53;;;;;;;0.20;0.20;;;;;;;17.40;100.00;102337.34;10443750;28;20096;-79
2023/10/04 00:50:56;;;;;;;0.40;0.20;;;;;;;17.47;100.00;102345.28;10460202;28;20041;-79
2023/10/04 00:56:02;;;;;;;0.55;0.40;;;;;;;17.22;100.00;102340.44;10460378;28;20045;-78
2023/10/04 01:01:06;;;;;;;0.22;0.22;;;;;;;17.39;100.00;102346.00;10433676;28;20060;-78
2023/10/04 01:06:09;;;;;;;0.20;0.10;;;;;;;17.36;100.00;102338.13;10452285;28;20408;-79
2023/10/04 01:11:10;;;;;;;0.10;0.10;;;;;;;17.34;100.00;102345.03;10461917;28;20045;-79
2023/10/04 01:16:12;;;;;;;0.00;0.00;;;;;;;17.51;100.00;102358.41;10444116;28;20496;-78
2023/10/04 01:21:16;;;;;;;0.65;0.35;;;;;;;17.15;100.00;102358.53;10442247;28;20040;-78
2023/10/04 01:26:25;;;;;;;0.10;0.10;;;;;;;17.27;100.00;102358.78;10458951;28;20096;-78
2023/10/04 01:31:28;;;;;;;0.20;0.20;;;;;;;17.16;100.00;102355.09;10418298;28;20095;-78
2023/10/04 01:36:32;;;;;;;3.72;0.32;;;;;;;17.40;100.00;102363.41;10425530;28;20056;-78
2023/10/04 01:41:37;;;;;;;0.00;0.00;;;;;;;17.27;100.00;102364.00;10432507;28;20045;-78
2023/10/04 01:46:39;;;;;;;0.10;0.08;;;;;;;17.56;100.00;102359.41;10457918;28;20121;-79
2023/10/04 01:51:42;;;;;;;0.47;0.30;;;;;;;17.36;100.00;102353.78;10439252;28;20048;-79
2023/10/04 01:56:46;;;;;;;0.00;0.00;;;;;;;17.40;100.00;102349.50;10419495;28;20148;-78
2023/10/04 02:01:48;;;;;;;0.15;0.15;;;;;;;17.60;100.00;102355.13;10423881;28;20048;-79
2023/10/04 02:06:49;;;;;;;0.20;0.13;;;;;;;17.76;100.00;102364.97;10459939;28;20503;-78
2023/10/04 02:11:51;;;;;;;0.30;0.10;;;;;;;17.67;100.00;102362.22;10442990;28;20132;-78
2023/10/04 02:16:53;;;;;;;0.00;0.00;;;;;;;17.60;100.00;102355.13;10457887;28;20049;-79
2023/10/04 02:21:55;;;;;;;0.25;0.20;;;;;;;17.72;100.00;102354.50;10458140;28;20522;-79
2023/10/04 02:26:56;;;;;;;0.75;0.13;;;;;;;17.63;100.00;102355.16;10440445;28;20056;-79
2023/10/04 02:31:58;;;;;;;0.17;0.10;;;;;;;17.61;100.00;102354.25;10421325;28;20050;-78
2023/10/04 02:37:00;;;;;;;0.60;0.28;;;;;;;17.25;100.00;102344.84;10456455;28;20049;-78
2023/10/04 02:42:03;;;;;;;0.00;0.00;;;;;;;17.82;100.00;102355.53;10446356;28;20072;-79
2023/10/04 02:47:08;;;;;;;0.55;0.45;;;;;;;17.70;100.00;102361.41;10463393;28;20484;-78
2023/10/04 02:52:11;;;;;;;0.10;0.10;;;;;;;17.63;100.00;102363.00;10423759;28;20037;-78
2023/10/04 02:57:13;;;;;;;0.70;0.70;;;;;;;17.70;100.00;102364.88;10456963;28;20075;-79
2023/10/04 03:02:15;;;;;;;0.03;0.03;;;;;;;17.60;100.00;102362.94;10464733;28;20521;-78
2023/10/04 03:07:17;;;;;;;0.10;0.10;;;;;;;17.55;100.00;102364.56;10448833;28;20136;-78
2023/10/04 03:12:19;;;;;;;0.10;0.00;;;;;;;17.67;100.00;102372.66;10465025;28;20041;-79
2023/10/04 03:17:21;;;;;;;2.03;0.45;;;;;;;17.42;100.00;102379.94;10464102;28;20076;-78
2023/10/04 03:22:23;;;;;;;0.77;0.77;;;;;;;17.60;100.00;102384.66;10464293;28;20057;-79
2023/10/04 03:27:27;;;;;;;1.55;0.32;;;;;;;17.73;100.00;102388.41;10445394;28;20045;-78
2023/10/04 03:32:29;;;;;;;0.30;0.30;;;;;;;17.36;100.00;102387.63;10463299;28;20041;-79
2023/10/04 03:37:38;;;;;;;0.30;0.20;;;;;;;17.53;100.00;102379.31;10460284;28;20446;-78
2023/10/04 03:42:45;;;;;;;0.10;0.10;;;;;;;17.56;100.00;102376.75;10445848;28;20051;-78
2023/10/04 03:47:50;;;;;;;0.10;0.10;;;;;;;17.45;100.00;102394.75;10461396;28;20088;-78
2023/10/04 03:52:57;;;;;;;3.45;0.52;;;;;;;17.20;100.00;102389.00;10459861;28;20045;-79
2023/10/04 03:57:59;;;;;;;0.75;0.30;;;;;;;17.39;100.00;102395.50;10443727;28;20083;-78
2023/10/04 04:03:03;;;;;;;0.95;0.50;;;;;;;17.44;100.00;102396.50;10442369;28;20457;-78
2023/10/04 04:08:05;;;;;;;0.98;0.32;;;;;;;17.22;100.00;102402.09;10427085;28;20099;-78
2023/10/04 04:13:07;;;;;;;0.32;0.32;;;;;;;17.15;100.00;102410.59;10401246;28;20459;-79
2023/10/04 04:18:14;;;;;;;1.25;0.43;;;;;;;17.01;100.00;102412.88;10462308;28;20048;-78
2023/10/04 04:23:17;;;;;;;0.10;0.10;;;;;;;17.08;100.00;102405.25;10458087;28;20041;-78
2023/10/04 04:28:20;;;;;;;0.20;0.10;;;;;;;16.69;100.00;102394.72;10459506;28;20037;-79
2023/10/04 04:33:26;;;;;;;0.35;0.20;;;;;;;16.83;100.00;102387.25;10460457;28;20041;-78
2023/10/04 04:39:18;;;;;;;0.30;0.20;;;;;;;16.74;100.00;102388.81;10484065;28;20049;-79
2023/10/04 04:44:29;;;;;;;0.50;0.20;;;;;;;16.71;100.00;102398.25;10458382;28;20045;-78
2023/10/04 04:49:32;;;;;;;0.15;0.10;;;;;;;16.65;100.00;102398.97;10441696;28;20124;-78
2023/10/04 04:54:34;;;;;;;0.08;0.08;;;;;;;16.64;100.00;102392.03;10439939;28;20053;-79
2023/10/04 04:59:37;;;;;;;1.25;0.75;;;;;;;16.45;100.00;102380.28;10441815;28;20488;-78
2023/10/04 05:04:39;;;;;;;0.17;0.15;;;;;;;16.64;100.00;102371.22;10428370;28;20056;-79
2023/10/04 05:09:41;;;;;;;0.43;0.43;;;;;;;16.52;100.00;102370.91;10442062;28;20089;-79
2023/10/04 05:14:43;;;;;;;0.30;0.22;;;;;;;16.39;100.00;102375.81;10456623;28;20081;-79
2023/10/04 05:19:45;;;;;;;2.92;1.13;;;;;;;16.52;100.00;102386.50;10457489;28;20395;-78
2023/10/04 05:24:46;;;;;;;0.00;0.00;;;;;;;16.41;100.00;102404.47;10457322;28;20063;-79
2023/10/04 05:29:48;;;;;;;1.65;0.90;;;;;;;16.11;100.00;102400.22;10440439;28;20052;-78
2023/10/04 05:34:50;;;;;;;0.20;0.20;;;;;;;16.42;100.00;102422.69;10441540;28;20041;-79
2023/10/04 05:39:52;;;;;;;0.22;0.17;;;;;;;16.29;100.00;102444.91;10457186;28;20041;-79
2023/10/04 05:44:54;;;;;;;0.50;0.38;;;;;;;16.38;100.00;102441.69;10458319;28;20048;-78
2023/10/04 05:49:55;;;;;;;1.05;0.50;;;;;;;16.61;100.00;102449.19;10439404;28;20041;-79
2023/10/04 05:54:57;;;;;;;0.00;0.00;;;;;;;16.64;100.00;102459.69;10454871;28;20053;-79
2023/10/04 05:59:59;;;;;;;0.35;0.28;;;;;;;16.57;100.00;102452.56;10454443;28;20047;-78
2023/10/04 06:05:02;;;;;;;0.25;0.10;;;;;;;16.78;100.00;102465.22;10442746;28;20056;-78
2023/10/04 06:10:04;;;;;;;0.10;0.10;;;;;;;16.68;100.00;102466.72;10462456;28;20795;-78
2023/10/04 06:15:28;;;;;;;0.40;0.40;;;;;;;17.00;100.00;102478.81;10447393;28;20036;-79
2023/10/04 06:20:30;;;;;;;0.00;0.00;;;;;;;17.30;100.00;102481.28;10461239;28;20157;-78
2023/10/04 06:25:34;;;;;;;0.45;0.38;;;;;;;17.44;100.00;102490.28;10444876;28;20064;-78
2023/10/04 06:30:37;;;;;;;0.10;0.10;;;;;;;17.58;100.00;102485.38;10456957;28;20045;-79
2023/10/04 06:35:43;;;;;;;0.73;0.65;;;;;;;17.17;100.00;102476.59;10456264;28;20055;-78
2023/10/04 06:40:44;;;;;;;0.65;0.30;;;;;;;17.66;100.00;102485.56;10445105;28;20143;-79
2023/10/04 06:45:46;;;;;;;6.80;0.90;;;;;;;18.00;100.00;102494.09;10462223;28;20478;-78
2023/10/04 06:50:49;;;;;;;0.50;0.25;;;;;;;18.50;100.00;102505.53;10463070;28;20045;-78
2023/10/04 06:55:51;;;;;;;0.00;0.00;;;;;;;18.38;100.00;102512.25;10462197;28;20460;-79
2023/10/04 07:00:56;;;;;;;0.00;0.00;;;;;;;18.29;100.00;102519.88;10444578;28;20041;-79
2023/10/04 07:05:58;;;;;;;0.22;0.13;;;;;;;18.73;100.00;102515.50;10460795;28;20091;-77
2023/10/04 07:11:00;;;;;;;0.43;0.20;;;;;;;18.54;100.00;102528.19;10444546;28;20052;-78
2023/10/04 07:16:02;;;;;;;0.22;0.22;;;;;;;18.51;100.00;102525.50;10460538;28;20047;-78
2023/10/04 07:21:04;;;;;;;0.90;0.43;;;;;;;18.88;100.00;102528.78;10465943;28;20102;-79
2023/10/04 07:26:09;;;;;;;0.17;0.10;;;;;;;18.70;100.00;102525.03;10468191;28;20488;-78
2023/10/04 07:31:12;;;;;;;0.40;0.25;;;;;;;19.49;100.00;102526.34;10430757;28;20053;-78
2023/10/04 07:36:14;;;;;;;0.05;0.05;;;;;;;19.86;100.00;102528.59;10464768;28;20045;-78
2023/10/04 07:41:16;;;;;;;0.65;0.32;;;;;;;19.75;100.00;102530.16;10435611;28;20037;-79
2023/10/04 07:46:18;;;;;;;0.40;0.20;;;;;;;19.76;100.00;102547.63;10449366;28;20049;-79
2023/10/04 07:51:19;;;;;;;0.30;0.30;;;;;;;20.05;100.00;102544.53;10460976;28;20063;-79
2023/10/04 07:56:21;;;;;;;0.00;0.00;;;;;;;20.02;100.00;102541.88;10466252;28;20075;-79
2023/10/04 08:01:23;;;;;;;0.30;0.10;;;;;;;20.42;100.00;102539.75;10425363;28;20056;-79
2023/10/04 08:06:24;;;;;;;3.70;0.85;;;;;;;20.48;100.00;102545.03;10464321;28;20572;-79
2023/10/04 08:11:27;;;;;;;0.28;0.20;;;;;;;20.49;100.00;102544.19;10465222;28;20043;-79
2023/10/04 08:16:30;;;;;;;0.20;0.20;;;;;;;20.74;100.00;102549.69;10446314;28;20500;-79
2023/10/04 08:21:33;;;;;;;0.77;0.45;;;;;;;20.63;100.00;102548.69;10466546;28;20065;-79
2023/10/04 08:26:34;;;;;;;0.77;0.60;;;;;;;21.30;100.00;102560.66;10467844;28;20045;-78
2023/10/04 08:31:36;;;;;;;0.75;0.63;;;;;;;21.10;100.00;102563.09;10465352;28;20404;-79
2023/10/04 08:36:39;;;;;;;0.43;0.20;;;;;;;21.48;100.00;102563.38;10446038;28;20076;-78
2023/10/04 08:41:41;;;;;;;0.20;0.20;;;;;;;21.20;100.00;102557.09;10466059;28;20041;-79
2023/10/04 08:46:45;;;;;;;0.70;0.52;;;;;;;21.19;100.00;102555.31;10463631;28;20060;-78
2023/10/04 08:51:59;;;;;;;0.17;0.10;;;;;;;21.17;100.00;102559.66;10449246;28;20045;-79
2023/10/04 08:57:13;;;;;;;0.22;0.10;;;;;;;21.84;100.00;102567.16;10429387;28;20053;-79
2023/10/04 09:02:18;;;;;;;1.58;0.40;;;;;;;21.89;100.00;102566.28;10424157;28;20076;-78
2023/10/04 09:07:20;;;;;;;24.40;0.70;;;;;;;21.81;100.00;102561.88;10424353;28;20099;-79
2023/10/04 09:12:21;;;;;;;0.55;0.50;;;;;;;21.15;100.00;102559.66;10458849;28;20057;-78
2023/10/04 09:17:25;;;;;;;0.00;0.00;;;;;;;22.25;100.00;102551.56;10441945;28;20052;-79
2023/10/04 09:22:31;;;;;;;0.40;0.13;;;;;;;22.09;100.00;102556.75;10441688;28;20518;-79
2023/10/04 09:27:33;;;;;;;1.90;0.88;;;;;;;22.28;100.00;102551.59;10458830;28;20056;-78
2023/10/04 09:32:38;;;;;;;0.10;0.10;;;;;;;22.50;100.00;102555.16;10442680;28;20045;-78
2023/10/04 09:37:44;;;;;;;0.95;0.50;;;;;;;22.49;100.00;102556.94;10458674;28;20057;-78
2023/10/04 09:42:53;;;;;;;0.13;0.13;;;;;;;22.60;100.00;102553.47;10441938;28;20045;-77
2023/10/04 09:47:55;;;;;;;0.17;0.10;;;;;;;22.81;100.00;102558.75;10458844;28;20462;-78
2023/10/04 09:52:57;;;;;;;2.22;0.13;;;;;;;22.82;100.00;102560.47;10439987;28;20049;-77
2023/10/04 09:58:01;;;;;;;0.00;0.00;;;;;;;22.98;100.00;102566.63;10439809;28;20077;-77
2023/10/04 10:03:08;;;;;;;0.38;0.38;;;;;;;21.73;100.00;102579.31;10444940;28;20044;-78
2023/10/04 10:08:13;;;;;;;0.00;0.00;;;;;;;22.20;100.00;102572.53;10440878;28;20083;-77
2023/10/04 10:13:16;;;;;;;0.47;0.30;;;;;;;21.68;100.00;102570.56;10441950;28;20041;-78
2023/10/04 10:18:18;;;;;;;0.22;0.13;;;;;;;21.79;100.00;102578.47;10449720;28;20400;-76
2023/10/04 10:23:19;;;;;;;0.22;0.20;;;;;;;21.61;100.00;102574.00;10458527;28;20049;-78
2023/10/04 10:28:22;;;;;;;0.17;0.17;;;;;;;21.39;100.00;102574.69;10441348;28;20069;-77
2023/10/04 10:33:25;;;;;;;0.20;0.20;;;;;;;21.94;100.00;102577.69;10442167;28;20045;-76
2023/10/04 10:38:44;;;;;;;0.32;0.30;;;;;;;22.30;100.00;102574.34;10439354;28;20381;-79
2023/10/04 10:44:11;;;;;;;0.30;0.30;;;;;;;22.46;100.00;102567.41;10438709;28;20048;-77
2023/10/04 10:49:44;;;;;;;3.00;0.93;;;;;;;21.65;100.00;102586.25;10439253;28;20841;-78
2023/10/04 10:54:46;;;;;;;0.90;0.60;;;;;;;22.30;100.00;102565.59;10462992;28;20056;-76
2023/10/04 10:59:50;;;;;;;0.43;0.38;;;;;;;21.69;100.00;102572.31;10463438;28;20480;-78
2023/10/04 11:04:54;;;;;;;0.22;0.13;;;;;;;21.59;100.00;102565.25;10462325;28;20040;-78
2023/10/04 11:09:58;;;;;;;0.00;0.00;;;;;;;22.21;100.00;102562.94;10462033;28;20079;-77
2023/10/04 11:15:00;;;;;;;1.30;0.22;;;;;;;22.31;100.00;102556.81;10461665;28;20055;-77
2023/10/04 11:20:12;;;;;;;1.10;0.65;;;;;;;21.74;100.00;102560.09;10461395;28;20087;-78
2023/10/04 11:25:13;;;;;;;0.20;0.20;;;;;;;22.37;100.00;102567.38;10443593;28;20132;-76
2023/10/04 11:30:27;;;;;;;0.70;0.40;;;;;;;22.11;100.00;102562.91;10460356;28;20064;-77
2023/10/04 11:35:33;;;;;;;0.47;0.40;;;;;;;21.98;100.00;102555.84;10460353;28;20041;-77
2023/10/04 11:40:37;;;;;;;0.10;0.10;;;;;;;21.98;100.00;102553.22;10459436;28;20040;-76
2023/10/04 11:45:40;;;;;;;0.45;0.28;;;;;;;22.79;100.00;102539.47;10459493;28;20139;-78
2023/10/04 11:50:42;;;;;;;0.22;0.22;;;;;;;22.32;100.00;102527.97;10442743;28;20136;-76
2023/10/04 11:55:44;;;;;;;0.35;0.35;;;;;;;22.17;100.00;102533.19;10442974;28;20103;-76
2023/10/04 12:00:45;;;;;;;0.00;0.00;;;;;;;22.91;100.00;102529.81;10457685;28;20049;-76
2023/10/04 12:05:47;;;;;;;0.57;0.55;;;;;;;21.83;100.00;102526.03;10420624;28;20140;-76
2023/10/04 12:10:50;;;;;;;0.20;0.20;;;;;;;22.08;100.00;102513.00;10438175;28;20090;-76
2023/10/04 12:15:53;;;;;;;2.00;0.40;;;;;;;22.12;100.00;102513.88;10457874;28;20048;-76
2023/10/04 12:20:54;;;;;;;0.73;0.43;;;;;;;22.16;100.00;102506.03;10441068;28;20106;-75
2023/10/04 12:25:57;;;;;;;0.10;0.10;;;;;;;21.97;100.00;102501.59;10457460;28;20493;-78
2023/10/04 12:31:02;;;;;;;0.32;0.15;;;;;;;22.52;100.00;102484.28;10430019;28;20431;-77
2023/10/04 12:36:07;;;;;;;0.55;0.25;;;;;;;22.80;100.00;102488.66;10418339;28;20056;-76
2023/10/04 12:41:09;;;;;;;0.00;0.00;;;;;;;22.23;100.00;102482.44;10457432;28;20126;-78
2023/10/04 12:46:11;;;;;;;0.77;0.25;;;;;;;22.55;100.00;102486.88;10458073;28;20045;-77
2023/10/04 12:51:12;;;;;;;0.95;0.30;;;;;;;22.90;100.00;102488.63;10457545;28;20069;-78
2023/10/04 12:56:16;;;;;;;0.30;0.08;;;;;;;22.69;100.00;102497.41;10456048;28;20424;-78
2023/10/04 13:01:21;;;;;;;0.32;0.05;;;;;;;22.36;100.00;102494.72;10406716;28;20081;-78
2023/10/04 13:06:23;;;;;;;2.63;1.48;;;;;;;21.75;100.00;102504.13;10427172;28;20045;-76
2023/10/04 13:11:25;;;;;;;0.88;0.57;;;;;;;21.91;100.00;102493.72;10456473;28;20037;-77
2023/10/04 13:16:28;;;;;;;0.47;0.28;;;;;;;22.19;100.00;102485.06;10456776;28;20056;-77
2023/10/04 13:21:29;;;;;;;1.63;0.47;;;;;;;21.85;100.00;102479.72;10455266;28;20051;-77
2023/10/04 13:26:31;;;;;;;1.13;0.32;;;;;;;21.91;100.00;102477.97;10438545;28;20095;-77
2023/10/04 13:31:33;;;;;;;1.05;0.50;;;;;;;22.05;100.00;102472.75;10438723;28;20041;-77
2023/10/04 13:36:35;;;;;;;0.50;0.32;;;;;;;22.23;100.00;102477.19;10438336;28;20057;-76
2023/10/04 13:41:37;;;;;;;0.35;0.20;;;;;;;22.16;100.00;102469.28;10438180;28;20057;-77
2023/10/04 13:46:39;;;;;;;0.93;0.68;;;;;;;22.21;100.00;102471.06;10422551;28;20045;-77
2023/10/04 13:51:42;;;;;;;0.38;0.13;;;;;;;21.83;100.00;102468.31;10437692;28;20136;-76
2023/10/04 13:56:44;;;;;;;0.30;0.30;;;;;;;22.13;100.00;102463.16;10454041;28;20072;-76
2023/10/04 14:01:48;;;;;;;0.20;0.10;;;;;;;21.92;100.00;102459.59;10437405;28;20091;-76
2023/10/04 14:06:50;;;;;;;1.52;0.60;;;;;;;21.87;100.00;102458.72;10444892;28;20071;-76
2023/10/04 14:11:51;;;;;;;1.10;0.30;;;;;;;21.61;100.00;102458.63;10437357;28;20037;-77
2023/10/04 14:16:53;;;;;;;0.63;0.30;;;;;;;21.69;100.00;102457.78;10437310;28;20055;-76
2023/10/04 14:21:55;;;;;;;0.20;0.10;;;;;;;21.11;100.00;102455.66;10453449;28;20116;-77
2023/10/04 14:27:01;;;;;;;0.35;0.32;;;;;;;21.33;100.00;102450.59;10446147;28;20140;-76
2023/10/04 14:32:03;;;;;;;0.52;0.52;;;;;;;21.56;100.00;102438.44;10444415;28;20415;-77
2023/10/04 14:37:05;;;;;;;0.55;0.35;;;;;;;21.18;100.00;102439.16;10444285;28;20051;-77
2023/10/04 14:42:08;;;;;;;0.00;0.00;;;;;;;21.82;100.00;102437.72;10460787;28;20480;-75
2023/10/04 14:47:10;;;;;;;1.73;0.30;;;;;;;21.54;100.00;102432.34;10453491;28;20045;-76
2023/10/04 14:52:12;;;;;;;2.10;0.88;;;;;;;21.35;100.00;102427.84;10456840;28;20429;-76
2023/10/04 14:57:13;;;;;;;0.35;0.28;;;;;;;21.42;100.00;102421.78;10443533;28;20049;-75
2023/10/04 15:02:15;;;;;;;0.35;0.08;;;;;;;21.26;100.00;102417.34;10460526;28;20564;-77
2023/10/04 15:07:18;;;;;;;0.55;0.32;;;;;;;20.98;100.00;102414.53;10460201;28;20397;-76
2023/10/04 15:12:19;;;;;;;0.65;0.43;;;;;;;20.92;100.00;102410.16;10460138;28;20082;-77
2023/10/04 15:17:21;;;;;;;2.78;0.65;;;;;;;20.95;100.00;102410.16;10428393;28;20404;-76
2023/10/04 15:22:27;;;;;;;0.65;0.57;;;;;;;21.01;100.00;102409.31;10459466;28;20094;-76
2023/10/04 15:27:29;;;;;;;0.90;0.40;;;;;;;21.62;100.00;102398.28;10443123;28;20060;-77
2023/10/04 15:32:32;;;;;;;0.25;0.25;;;;;;;21.64;100.00;102398.28;10442560;28;20064;-76
2023/10/04 15:37:34;;;;;;;0.00;0.00;;;;;;;21.67;100.00;102391.31;10440313;28;20099;-76
2023/10/04 15:42:35;;;;;;;0.32;0.30;;;;;;;21.05;100.00;102406.75;10444158;28;20032;-76
2023/10/04 15:47:38;;;;;;;0.17;0.08;;;;;;;21.65;100.00;102400.06;10444657;28;20056;-76
2023/10/04 15:52:41;;;;;;;0.28;0.20;;;;;;;21.33;100.00;102395.53;10458388;28;20045;-76
2023/10/04 15:58:01;;;;;;;2.40;0.55;;;;;;;21.04;100.00;102404.97;10458310;28;20037;-76
2023/10/04 16:03:04;;;;;;;0.95;0.40;;;;;;;20.95;100.00;102394.44;10457779;28;20555;-77
2023/10/04 16:08:08;;;;;;;4.53;1.00;;;;;;;20.96;100.00;102395.34;10441606;28;20071;-76
2023/10/04 16:13:10;;;;;;;2.10;0.90;;;;;;;20.81;100.00;102394.38;10437183;28;20055;-77
2023/10/04 16:18:12;;;;;;;0.45;0.45;;;;;;;20.50;100.00;102388.88;10455147;28;20110;-77
2023/10/04 16:23:14;;;;;;;0.40;0.20;;;;;;;20.46;100.00;102379.22;10456998;28;20039;-75
2023/10/04 16:28:16;;;;;;;0.00;0.00;;;;;;;20.69;100.00;102375.91;10458290;28;20404;-76
2023/10/04 16:33:18;;;;;;;0.10;0.10;;;;;;;20.16;100.00;102372.84;10456901;28;20088;-77
2023/10/04 16:38:19;;;;;;;1.85;0.50;;;;;;;20.47;100.00;102378.34;10439825;28;20052;-76
2023/10/04 16:43:21;;;;;;;0.40;0.20;;;;;;;20.67;100.00;102388.09;10455982;28;20069;-77
2023/10/04 16:48:23;;;;;;;0.20;0.10;;;;;;;20.29;100.00;102382.56;10439286;28;20057;-76
2023/10/04 16:53:25;;;;;;;0.55;0.30;;;;;;;20.47;100.00;102395.81;10439430;28;20514;-77
2023/10/04 16:58:27;;;;;;;0.73;0.60;;;;;;;20.47;100.00;102393.19;10455697;28;20262;-76
2023/10/04 17:03:29;;;;;;;1.38;0.35;;;;;;;20.24;100.00;102394.72;10455195;28;20075;-76
2023/10/04 17:08:30;;;;;;;0.20;0.20;;;;;;;19.72;100.00;102394.16;10456326;28;20127;-77
2023/10/04 17:13:32;;;;;;;6.13;0.52;;;;;;;20.20;100.00;102398.19;10456425;28;20040;-76
2023/10/04 17:18:34;;;;;;;1.55;0.43;;;;;;;19.45;100.00;102390.34;10438536;28;20424;-76
2023/10/04 17:23:35;;;;;;;0.32;0.25;;;;;;;20.18;100.00;102393.81;10455153;28;20052;-77
2023/10/04 17:28:37;;;;;;;0.93;0.20;;;;;;;19.69;100.00;102400.22;10454990;28;20041;-76
2023/10/04 17:33:39;;;;;;;0.15;0.03;;;;;;;19.54;100.00;102403.53;10422808;28;20040;-76
2023/10/04 17:38:41;;;;;;;0.20;0.20;;;;;;;19.15;100.00;102404.75;10424407;28;20577;-76
2023/10/04 17:43:44;;;;;;;0.15;0.13;;;;;;;19.32;100.00;102405.84;10429863;28;20408;-76
2023/10/04 17:48:46;;;;;;;0.10;0.10;;;;;;;19.63;100.00;102415.84;10447612;28;20045;-76
2023/10/04 17:53:48;;;;;;;0.10;0.00;;;;;;;19.21;100.00;102423.13;10453999;28;20060;-77
2023/10/04 17:58:50;;;;;;;0.10;0.10;;;;;;;18.85;100.00;102429.53;10426438;28;20120;-76
2023/10/04 18:03:52;;;;;;;0.03;0.03;;;;;;;19.09;100.00;102422.97;10427944;28;20488;-76
2023/10/04 18:08:54;;;;;;;0.28;0.28;;;;;;;18.67;100.00;102436.19;10445767;28;20059;-76
2023/10/04 18:13:56;;;;;;;0.38;0.22;;;;;;;19.05;100.00;102436.81;10444844;28;20042;-77
2023/10/04 18:18:58;;;;;;;0.65;0.43;;;;;;;18.56;100.00;102432.53;10439333;28;20416;-77
2023/10/04 18:24:00;;;;;;;0.38;0.30;;;;;;;18.65;100.00;102427.44;10454665;28;20041;-76
2023/10/04 18:29:02;;;;;;;0.28;0.28;;;;;;;18.77;100.00;102425.91;10461764;28;20480;-77
2023/10/04 18:34:05;;;;;;;0.17;0.17;;;;;;;18.62;100.00;102422.19;10461663;28;20041;-77
2023/10/04 18:39:09;;;;;;;4.40;0.47;;;;;;;18.71;100.00;102417.13;10445205;28;20052;-76
2023/10/04 18:44:10;;;;;;;1.73;0.95;;;;;;;18.63;100.00;102421.34;10461224;28;20059;-76
2023/10/04 18:49:13;;;;;;;0.45;0.40;;;;;;;18.83;100.00;102408.63;10461466;28;20060;-76
2023/10/04 18:54:15;;;;;;;0.57;0.57;;;;;;;18.28;100.00;102413.78;10461553;28;20506;-77
2023/10/04 18:59:17;;;;;;;0.25;0.17;;;;;;;18.49;100.00;102415.03;10444785;28;20067;-76
2023/10/04 19:04:19;;;;;;;0.52;0.52;;;;;;;18.00;100.00;102396.75;10461190;28;20044;-76
2023/10/04 19:09:21;;;;;;;0.47;0.45;;;;;;;18.14;100.00;102402.22;10451696;28;20049;-76
2023/10/04 19:14:24;;;;;;;0.22;0.17;;;;;;;18.32;100.00;102404.28;10459705;28;20074;-76
2023/10/04 19:19:26;;;;;;;0.40;0.40;;;;;;;18.02;100.00;102408.97;10460680;28;20045;-77
2023/10/04 19:24:27;;;;;;;0.63;0.38;;;;;;;18.09;100.00;102404.75;10460304;28;20051;-76
2023/10/04 19:29:29;;;;;;;0.40;0.28;;;;;;;18.08;100.00;102401.25;10460059;28;20159;-77
2023/10/04 19:34:31;;;;;;;0.43;0.25;;;;;;;17.81;100.00;102395.50;10443468;28;20131;-77
2023/10/04 19:39:32;;;;;;;0.32;0.32;;;;;;;17.94;100.00;102386.19;10459924;28;20041;-76
2023/10/04 19:44:36;;;;;;;1.95;1.25;;;;;;;17.72;100.00;102384.03;10443084;28;20045;-76
2023/10/04 19:49:38;;;;;;;0.03;0.00;;;;;;;17.75;100.00;102378.88;10460713;28;20045;-76
2023/10/04 19:54:40;;;;;;;0.47;0.38;;;;;;;18.01;100.00;102375.91;10459194;28;20051;-77
2023/10/04 19:59:42;;;;;;;0.28;0.10;;;;;;;18.23;100.00;102376.31;10459509;28;20098;-76
2023/10/04 20:04:44;;;;;;;0.10;0.10;;;;;;;18.04;100.00;102381.19;10442182;28;20051;-77
2023/10/04 20:09:45;;;;;;;0.85;0.35;;;;;;;17.95;100.00;102377.47;10458581;28;20048;-77
2023/10/04 20:14:49;;;;;;;0.85;0.20;;;;;;;18.08;100.00;102356.91;10458722;28;20037;-77
2023/10/04 20:19:51;;;;;;;0.30;0.30;;;;;;;18.08;100.00;102341.28;10458303;28;20048;-76
2023/10/04 20:24:53;;;;;;;1.10;0.73;;;;;;;17.90;100.00;102356.56;10457750;28;20048;-76
2023/10/04 20:29:56;;;;;;;0.70;0.35;;;;;;;18.06;100.00;102357.75;10457978;28;20053;-76
2023/10/04 20:34:58;;;;;;;0.57;0.52;;;;;;;17.67;100.00;102354.41;10457888;28;20045;-77
2023/10/04 20:40:06;;;;;;;0.28;0.17;;;;;;;17.67;100.00;102323.13;10457602;28;20415;-76
2023/10/04 20:45:11;;;;;;;0.10;0.10;;;;;;;17.50;100.00;102322.78;10457817;28;20116;-77
2023/10/04 20:50:13;;;;;;;0.10;0.10;;;;;;;17.95;100.00;102318.44;10457163;28;20049;-76
2023/10/04 20:55:16;;;;;;;3.75;2.13;;;;;;;17.54;100.00;102310.69;10456967;28;20044;-77
2023/10/04 21:00:18;;;;;;;0.93;0.63;;;;;;;17.64;100.00;102316.97;10456350;28;20052;-77
2023/10/04 21:05:20;;;;;;;0.50;0.17;;;;;;;18.03;100.00;102316.84;10456288;28;20048;-77
2023/10/04 21:10:22;;;;;;;0.35;0.10;;;;;;;18.07;100.00;102313.44;10457353;28;20087;-76
2023/10/04 21:15:24;;;;;;;0.28;0.28;;;;;;;18.01;100.00;102315.94;10439309;28;20239;-76
2023/10/04 21:20:29;;;;;;;1.65;0.35;;;;;;;18.06;100.00;102306.47;10431484;28;20055;-77
2023/10/04 21:25:30;;;;;;;0.03;0.03;;;;;;;18.25;100.00;102301.56;10453840;28;20052;-76
2023/10/04 21:30:38;;;;;;;4.05;0.90;;;;;;;18.32;100.00;102282.53;10431372;28;20045;-75
2023/10/04 21:35:43;;;;;;;0.10;0.10;;;;;;;18.50;100.00;102276.72;10454446;28;20080;-76
2023/10/04 21:40:44;;;;;;;1.55;0.70;;;;;;;18.58;100.00;102284.66;10454963;28;20044;-77
2023/10/04 21:45:50;;;;;;;4.68;0.55;;;;;;;18.56;100.00;102278.56;10454858;28;20504;-77
2023/10/04 21:50:54;;;;;;;2.00;0.45;;;;;;;18.70;100.00;102290.06;10455080;28;20037;-76
2023/10/04 21:55:57;;;;;;;0.32;0.20;;;;;;;18.58;100.00;102289.00;10454597;28;20482;-76
2023/10/04 22:01:08;;;;;;;0.13;0.13;;;;;;;18.59;100.00;102273.38;10455991;28;20039;-76
2023/10/04 22:06:10;;;;;;;0.38;0.32;;;;;;;18.45;100.00;102267.06;10456100;28;20488;-76
2023/10/04 22:11:12;;;;;;;0.10;0.10;;;;;;;18.75;100.00;102271.88;10454535;28;20033;-76
2023/10/04 22:16:14;;;;;;;0.70;0.35;;;;;;;18.42;100.00;102259.22;10455751;28;20080;-77
2023/10/04 22:21:15;;;;;;;0.95;0.30;;;;;;;18.69;100.00;102245.69;10454400;28;20144;-77
2023/10/04 22:26:18;;;;;;;0.00;0.00;;;;;;;18.93;100.00;102247.78;10437221;28;20045;-76
2023/10/04 22:31:19;;;;;;;1.63;0.45;;;;;;;18.95;100.00;102247.78;10454215;28;20067;-76
2023/10/04 22:36:21;;;;;;;0.80;0.50;;;;;;;18.97;100.00;102238.25;10437373;28;20053;-76
2023/10/04 22:41:38;;;;;;;0.20;0.20;;;;;;;18.83;100.00;102232.78;10454116;28;20043;-76
2023/10/04 22:46:41;;;;;;;0.32;0.10;;;;;;;18.76;100.00;102225.75;10458107;28;20055;-76
2023/10/04 22:51:45;;;;;;;0.10;0.10;;;;;;;18.85;100.00;102204.97;10449212;28;20037;-75
2023/10/04 22:56:47;;;;;;;0.05;0.05;;;;;;;18.92;100.00;102205.94;10420088;28;20045;-77